Ocean Navigator — WSC2552 — position and weather

sailwx.info

Track history (hours):
 
Tides and Currents Weather Stations Pressure Air Temp Water Temp Dewpoint Dewpoint Depression Visibility Wind Speed Wind Dir Waves Ship Positions

Ocean Navigator

Owner: OCEAN NAVIGATOR INC, SEATTLE, WA. More information available from US FCC via Universal Licensing System and Coast Guard Vessel Documentation Center.

Last reported at 2017-Feb-18 02:34 UTC. Time now 2017-Feb-22 01:43 UTC.
Position N 47°35' W 122°22'.

Type: Tug. MMSI: 366358000.

Date/timePositionNaut miles runAvg speedWind from/ knotsBaromVisibWave heightAir tempDewpointWater temp
2017-Feb-18 02:34N 47°35' W 122°22'8 7.7
2017-Feb-18 01:33N 47°42' W 122°28'10 9.9
2017-Feb-18 00:33N 47°52' W 122°29'9 9.1
2017-Feb-17 23:33N 47°59' W 122°37'11 7.7
2017-Feb-17 22:10N 48°09' W 122°44'4 6.9
2017-Feb-17 21:33N 48°12' W 122°48'11 9.3
2017-Feb-17 20:22N 48°22' W 122°46'910.8
2017-Feb-17 19:33N 48°31' W 122°42'10 9.9
2017-Feb-17 18:33N 48°39' W 122°34'5 4.8
2017-Feb-17 17:33N 48°43' W 122°31'0 0.0
2017-Feb-17 16:33N 48°43' W 122°31'7 7.2
2017-Feb-17 15:33N 48°37' W 122°37'1312.6
2017-Feb-17 14:31N 48°25' W 122°44'1211.9
2017-Feb-17 13:33N 48°14' W 122°48'1210.4
2017-Feb-17 12:26N 48°04' W 122°38'1011.5
2017-Feb-17 11:34N 47°56' W 122°30'1212.4
2017-Feb-17 10:33N 47°44' W 122°26'1010.3
2017-Feb-17 09:34N 47°34' W 122°21'0 0.0
2017-Feb-17 08:33N 47°34' W 122°21'0 0.0
2017-Feb-17 07:33N 47°34' W 122°21'0 0.0
2017-Feb-17 06:33N 47°34' W 122°21'0 0.0
2017-Feb-17 05:33N 47°34' W 122°21'0 0.0
2017-Feb-17 04:33N 47°34' W 122°21'0 0.0
2017-Feb-16 22:32N 47°34' W 122°21'2 2.0
2017-Feb-16 21:33N 47°36' W 122°23'6 5.9
2017-Feb-16 20:34N 47°40' W 122°28'7 7.4
2017-Feb-16 19:33N 47°47' W 122°27'7 7.4
2017-Feb-16 18:33N 47°55' W 122°30'7 6.9
2017-Feb-16 17:32N 47°60' W 122°37'9 7.4
2017-Feb-16 16:22N 48°08' W 122°42'7 8.4
2017-Feb-16 15:31N 48°14' W 122°48'10 8.5
2017-Feb-16 14:22N 48°23' W 122°45'6 6.9
2017-Feb-16 13:33N 48°29' W 122°45'6 6.4
2017-Feb-16 12:34N 48°35' W 122°45'7 6.7
2017-Feb-16 11:34N 48°42' W 122°44'16 7.6
2017-Feb-16 09:24N 48°52' W 123°04'7 8.3
2017-Feb-16 08:33N 48°56' W 123°12'8 8.1
2017-Feb-16 07:33N 49°02' W 123°21'7 7.3
2017-Feb-16 06:33N 49°08' W 123°28'7 7.4
2017-Feb-16 05:33N 49°14' W 123°34'7 6.8
2017-Feb-16 04:33N 49°20' W 123°39'6 6.4
2017-Feb-16 03:33N 49°25' W 123°45'3 3.0
2017-Feb-16 02:34N 49°28' W 123°45'0 0.0
2017-Feb-16 01:33N 49°28' W 123°45'0 0.2
2017-Feb-16 00:33N 49°28' W 123°45'2 1.9
2017-Feb-15 23:34N 49°26' W 123°45'2 2.0
2017-Feb-15 22:33N 49°24' W 123°44'3 3.2
2017-Feb-15 21:33N 49°26' W 123°48'5 4.9
2017-Feb-15 20:33N 49°23' W 123°42'5 5.0
2017-Feb-15 19:33N 49°19' W 123°38'5 5.1
2017-Feb-15 18:33N 49°15' W 123°33'6 5.6
2017-Feb-15 17:32N 49°10' W 123°28'6 5.9
2017-Feb-15 16:33N 49°05' W 123°23'6 6.1
2017-Feb-15 15:33N 49°01' W 123°17'6 6.2
2017-Feb-15 14:33N 48°57' W 123°10'7 7.0
2017-Feb-15 13:32N 48°52' W 123°01'8 8.2
2017-Feb-15 12:32N 48°47' W 122°51'8 8.5
2017-Feb-15 11:33N 48°41' W 122°43'8 8.0
2017-Feb-15 10:33N 48°33' W 122°45'7 7.5
2017-Feb-15 09:33N 48°26' W 122°44'7 7.2
2017-Feb-15 08:33N 48°19' W 122°46'8 7.6
2017-Feb-15 07:32N 48°11' W 122°46'1310.9
2017-Feb-15 06:19N 47°60' W 122°36'810.6
2017-Feb-15 05:33N 47°54' W 122°28'10 9.8
2017-Feb-15 04:33N 47°44' W 122°26'8 8.3
2017-Feb-15 03:33N 47°36' W 122°23'2 2.1
2017-Feb-15 02:33N 47°34' W 122°21'  
2017-Feb-09 15:33N 47°34' W 122°21'2 1.6
2017-Feb-09 14:33N 47°36' W 122°22'5 4.7
2017-Feb-09 13:33N 47°39' W 122°27'5 5.2
2017-Feb-09 12:33N 47°44' W 122°28'5 4.6
2017-Feb-09 11:33N 47°48' W 122°28'5 4.7
2017-Feb-09 10:33N 47°53' W 122°30'6 5.8
2017-Feb-09 09:33N 47°58' W 122°35'7 6.4
2017-Feb-09 08:29N 48°04' W 122°39'9 6.4
2017-Feb-09 07:05N 48°11' W 122°47'4 6.1
2017-Feb-09 06:29N 48°15' W 122°48'8 7.2
2017-Feb-09 05:22N 48°22' W 122°46'7 8.8
2017-Feb-09 04:33N 48°30' W 122°44'10 9.7
2017-Feb-09 03:33N 48°39' W 122°44'8 7.8
2017-Feb-09 02:33N 48°46' W 122°50'8 8.1
2017-Feb-09 01:33N 48°50' W 123°00'9 9.1
2017-Feb-09 00:33N 48°56' W 123°11'9 8.9
2017-Feb-08 23:33N 49°02' W 123°21'8 8.2
2017-Feb-08 22:33N 49°09' W 123°28'8 8.5
2017-Feb-08 21:33N 49°16' W 123°36'8 8.1
2017-Feb-08 20:33N 49°23' W 123°43'6 5.8
2017-Feb-08 19:33N 49°28' W 123°45'0 0.0
2017-Feb-08 18:33N 49°28' W 123°45'0 0.2
2017-Feb-08 17:33N 49°28' W 123°45'5 5.1
2017-Feb-08 16:33N 49°23' W 123°43'1010.0
2017-Feb-08 15:33N 49°15' W 123°34'6 6.3
2017-Feb-08 14:33N 49°10' W 123°28'6 5.7
2017-Feb-08 13:33N 49°05' W 123°22'6 6.0
2017-Feb-08 12:33N 49°01' W 123°16'6 6.1
2017-Feb-08 11:33N 48°57' W 123°09'7 6.4
2017-Feb-08 10:31N 48°52' W 123°02'7 6.8
2017-Feb-08 09:30N 48°48' W 122°53'7 7.1
2017-Feb-08 08:33N 48°44' W 122°45'7 7.1
2017-Feb-08 07:33N 48°37' W 122°44'9 8.9
2017-Feb-08 06:33N 48°28' W 122°44'7 7.1
2017-Feb-08 05:32N 48°21' W 122°45'8 6.7
2017-Feb-08 04:15N 48°13' W 122°48'11 9.5
2017-Feb-08 03:09N 48°05' W 122°38'  
Track history (hours):
 
Tides and Currents Weather Stations Pressure Air Temp Water Temp Dewpoint Dewpoint Depression Visibility Wind Speed Wind Dir Waves Ship Positions

Ocean Navigator

Owner: OCEAN NAVIGATOR INC, SEATTLE, WA. More information available from US FCC via Universal Licensing System and Coast Guard Vessel Documentation Center.

Last reported at 2017-Feb-18 02:34 UTC. Time now 2017-Feb-22 01:43 UTC.
Position N 47°35' W 122°22'.

Type: Tug. MMSI: 366358000.

Date/timePositionNaut miles runAvg speedWind from/ knotsBaromVisibWave heightAir tempDewpointWater temp
2017-Feb-18 02:34N 47°35' W 122°22'8 7.7
2017-Feb-18 01:33N 47°42' W 122°28'10 9.9
2017-Feb-18 00:33N 47°52' W 122°29'9 9.1
2017-Feb-17 23:33N 47°59' W 122°37'11 7.7
2017-Feb-17 22:10N 48°09' W 122°44'4 6.9
2017-Feb-17 21:33N 48°12' W 122°48'11 9.3
2017-Feb-17 20:22N 48°22' W 122°46'910.8
2017-Feb-17 19:33N 48°31' W 122°42'10 9.9
2017-Feb-17 18:33N 48°39' W 122°34'5 4.8
2017-Feb-17 17:33N 48°43' W 122°31'0 0.0
2017-Feb-17 16:33N 48°43' W 122°31'7 7.2
2017-Feb-17 15:33N 48°37' W 122°37'1312.6
2017-Feb-17 14:31N 48°25' W 122°44'1211.9
2017-Feb-17 13:33N 48°14' W 122°48'1210.4
2017-Feb-17 12:26N 48°04' W 122°38'1011.5
2017-Feb-17 11:34N 47°56' W 122°30'1212.4
2017-Feb-17 10:33N 47°44' W 122°26'1010.3
2017-Feb-17 09:34N 47°34' W 122°21'0 0.0
2017-Feb-17 08:33N 47°34' W 122°21'0 0.0
2017-Feb-17 07:33N 47°34' W 122°21'0 0.0
2017-Feb-17 06:33N 47°34' W 122°21'0 0.0
2017-Feb-17 05:33N 47°34' W 122°21'0 0.0
2017-Feb-17 04:33N 47°34' W 122°21'0 0.0
2017-Feb-16 22:32N 47°34' W 122°21'2 2.0
2017-Feb-16 21:33N 47°36' W 122°23'6 5.9
2017-Feb-16 20:34N 47°40' W 122°28'7 7.4
2017-Feb-16 19:33N 47°47' W 122°27'7 7.4
2017-Feb-16 18:33N 47°55' W 122°30'7 6.9
2017-Feb-16 17:32N 47°60' W 122°37'9 7.4
2017-Feb-16 16:22N 48°08' W 122°42'7 8.4
2017-Feb-16 15:31N 48°14' W 122°48'10 8.5
2017-Feb-16 14:22N 48°23' W 122°45'6 6.9
2017-Feb-16 13:33N 48°29' W 122°45'6 6.4
2017-Feb-16 12:34N 48°35' W 122°45'7 6.7
2017-Feb-16 11:34N 48°42' W 122°44'16 7.6
2017-Feb-16 09:24N 48°52' W 123°04'7 8.3
2017-Feb-16 08:33N 48°56' W 123°12'8 8.1
2017-Feb-16 07:33N 49°02' W 123°21'7 7.3
2017-Feb-16 06:33N 49°08' W 123°28'7 7.4
2017-Feb-16 05:33N 49°14' W 123°34'7 6.8
2017-Feb-16 04:33N 49°20' W 123°39'6 6.4
2017-Feb-16 03:33N 49°25' W 123°45'3 3.0
2017-Feb-16 02:34N 49°28' W 123°45'0 0.0
2017-Feb-16 01:33N 49°28' W 123°45'0 0.2
2017-Feb-16 00:33N 49°28' W 123°45'2 1.9
2017-Feb-15 23:34N 49°26' W 123°45'2 2.0
2017-Feb-15 22:33N 49°24' W 123°44'3 3.2
2017-Feb-15 21:33N 49°26' W 123°48'5 4.9
2017-Feb-15 20:33N 49°23' W 123°42'5 5.0
2017-Feb-15 19:33N 49°19' W 123°38'5 5.1
2017-Feb-15 18:33N 49°15' W 123°33'6 5.6
2017-Feb-15 17:32N 49°10' W 123°28'6 5.9
2017-Feb-15 16:33N 49°05' W 123°23'6 6.1
2017-Feb-15 15:33N 49°01' W 123°17'6 6.2
2017-Feb-15 14:33N 48°57' W 123°10'7 7.0
2017-Feb-15 13:32N 48°52' W 123°01'8 8.2
2017-Feb-15 12:32N 48°47' W 122°51'8 8.5
2017-Feb-15 11:33N 48°41' W 122°43'8 8.0
2017-Feb-15 10:33N 48°33' W 122°45'7 7.5
2017-Feb-15 09:33N 48°26' W 122°44'7 7.2
2017-Feb-15 08:33N 48°19' W 122°46'8 7.6
2017-Feb-15 07:32N 48°11' W 122°46'1310.9
2017-Feb-15 06:19N 47°60' W 122°36'810.6
2017-Feb-15 05:33N 47°54' W 122°28'10 9.8
2017-Feb-15 04:33N 47°44' W 122°26'8 8.3
2017-Feb-15 03:33N 47°36' W 122°23'2 2.1
2017-Feb-15 02:33N 47°34' W 122°21'  
2017-Feb-09 15:33N 47°34' W 122°21'2 1.6
2017-Feb-09 14:33N 47°36' W 122°22'5 4.7
2017-Feb-09 13:33N 47°39' W 122°27'5 5.2
2017-Feb-09 12:33N 47°44' W 122°28'5 4.6
2017-Feb-09 11:33N 47°48' W 122°28'5 4.7
2017-Feb-09 10:33N 47°53' W 122°30'6 5.8
2017-Feb-09 09:33N 47°58' W 122°35'7 6.4
2017-Feb-09 08:29N 48°04' W 122°39'9 6.4
2017-Feb-09 07:05N 48°11' W 122°47'4 6.1
2017-Feb-09 06:29N 48°15' W 122°48'8 7.2
2017-Feb-09 05:22N 48°22' W 122°46'7 8.8
2017-Feb-09 04:33N 48°30' W 122°44'10 9.7
2017-Feb-09 03:33N 48°39' W 122°44'8 7.8
2017-Feb-09 02:33N 48°46' W 122°50'8 8.1
2017-Feb-09 01:33N 48°50' W 123°00'9 9.1
2017-Feb-09 00:33N 48°56' W 123°11'9 8.9
2017-Feb-08 23:33N 49°02' W 123°21'8 8.2
2017-Feb-08 22:33N 49°09' W 123°28'8 8.5
2017-Feb-08 21:33N 49°16' W 123°36'8 8.1
2017-Feb-08 20:33N 49°23' W 123°43'6 5.8
2017-Feb-08 19:33N 49°28' W 123°45'0 0.0
2017-Feb-08 18:33N 49°28' W 123°45'0 0.2
2017-Feb-08 17:33N 49°28' W 123°45'5 5.1
2017-Feb-08 16:33N 49°23' W 123°43'1010.0
2017-Feb-08 15:33N 49°15' W 123°34'6 6.3
2017-Feb-08 14:33N 49°10' W 123°28'6 5.7
2017-Feb-08 13:33N 49°05' W 123°22'6 6.0
2017-Feb-08 12:33N 49°01' W 123°16'6 6.1
2017-Feb-08 11:33N 48°57' W 123°09'7 6.4
2017-Feb-08 10:31N 48°52' W 123°02'7 6.8
2017-Feb-08 09:30N 48°48' W 122°53'7 7.1
2017-Feb-08 08:33N 48°44' W 122°45'7 7.1
2017-Feb-08 07:33N 48°37' W 122°44'9 8.9
2017-Feb-08 06:33N 48°28' W 122°44'7 7.1
2017-Feb-08 05:32N 48°21' W 122°45'8 6.7
2017-Feb-08 04:15N 48°13' W 122°48'11 9.5
2017-Feb-08 03:09N 48°05' W 122°38'  

Dump ship's entire track history